Terminal Aerodrome Forecast
Issued by NWS

Home | Current Version | Previous Version | Graphics & Text | Print | Product List | Glossary On
Versions: 1 2 3 4 5 6 7 8 9 10 11 12 13 14 15 16 17 18 19
000
FTUS41 KCLE 221700
TAFFDY
TAF
KFDY 221720Z 2218/2318 32018G26KT P6SM SCT035
      TEMPO 2218/2222 BKN035
     FM230000 32016G24KT P6SM SKC
     FM230300 31008KT P6SM SKC
     FM231500 34010KT P6SM SKC=

USA.gov is the U.S. government's official web portal to all federal, state and local government web resources and services.